sensor_id;sensor_type;location;lat;lon;timestamp;pressure;altitude;pressure_sealevel;temperature;humidity
69173;BME280;56280;49.662;8.408;2022-07-06T00:01:41;101332.38;;;17.02;60.66
69173;BME280;56280;49.662;8.408;2022-07-06T00:04:06;101340.03;;;16.97;61.15
69173;BME280;56280;49.662;8.408;2022-07-06T00:06:32;101355.34;;;17.14;60.55
69173;BME280;56280;49.662;8.408;2022-07-06T00:08:58;101356.75;;;17.19;60.70
69173;BME280;56280;49.662;8.408;2022-07-06T00:11:23;101357.88;;;17.16;60.49
69173;BME280;56280;49.662;8.408;2022-07-06T00:13:49;101352.97;;;17.11;60.33
69173;BME280;56280;49.662;8.408;2022-07-06T00:16:14;101372.06;;;17.08;60.98
69173;BME280;56280;49.662;8.408;2022-07-06T00:18:40;101377.16;;;17.11;61.06
69173;BME280;56280;49.662;8.408;2022-07-06T00:21:05;101373.88;;;17.08;61.46
69173;BME280;56280;49.662;8.408;2022-07-06T00:23:30;101372.22;;;17.07;60.96
69173;BME280;56280;49.662;8.408;2022-07-06T00:25:56;101374.31;;;17.03;61.41
69173;BME280;56280;49.662;8.408;2022-07-06T00:28:21;101363.03;;;16.90;62.11
69173;BME280;56280;49.662;8.408;2022-07-06T00:30:46;101366.28;;;16.84;62.80
69173;BME280;56280;49.662;8.408;2022-07-06T00:33:12;101367.72;;;16.68;63.15
69173;BME280;56280;49.662;8.408;2022-07-06T00:35:37;101342.19;;;16.45;63.84
69173;BME280;56280;49.662;8.408;2022-07-06T00:38:03;101369.41;;;16.50;64.17
69173;BME280;56280;49.662;8.408;2022-07-06T00:40:29;101359.09;;;16.35;64.32
69173;BME280;56280;49.662;8.408;2022-07-06T00:42:55;101378.00;;;16.53;64.40
69173;BME280;56280;49.662;8.408;2022-07-06T00:45:21;101379.03;;;16.52;64.01
69173;BME280;56280;49.662;8.408;2022-07-06T00:47:46;101355.44;;;16.46;64.44
69173;BME280;56280;49.662;8.408;2022-07-06T00:50:14;101382.97;;;16.48;64.61
69173;BME280;56280;49.662;8.408;2022-07-06T00:52:40;101363.78;;;16.23;65.40
69173;BME280;56280;49.662;8.408;2022-07-06T00:55:06;101368.44;;;16.21;65.70
69173;BME280;56280;49.662;8.408;2022-07-06T00:57:32;101366.72;;;16.20;65.93
69173;BME280;56280;49.662;8.408;2022-07-06T00:59:58;101364.19;;;16.09;66.16
69173;BME280;56280;49.662;8.408;2022-07-06T01:02:23;101360.94;;;16.06;66.19
69173;BME280;56280;49.662;8.408;2022-07-06T01:04:49;101374.31;;;15.96;66.88
69173;BME280;56280;49.662;8.408;2022-07-06T01:07:14;101374.19;;;15.97;66.75
69173;BME280;56280;49.662;8.408;2022-07-06T01:09:39;101348.06;;;15.90;67.20
69173;BME280;56280;49.662;8.408;2022-07-06T01:12:05;101366.72;;;16.01;66.87
69173;BME280;56280;49.662;8.408;2022-07-06T01:14:31;101352.88;;;15.86;66.61
69173;BME280;56280;49.662;8.408;2022-07-06T01:16:57;101357.09;;;15.89;66.50
69173;BME280;56280;49.662;8.408;2022-07-06T01:19:22;101359.63;;;15.90;66.71
69173;BME280;56280;49.662;8.408;2022-07-06T01:21:48;101361.91;;;15.95;66.76
69173;BME280;56280;49.662;8.408;2022-07-06T01:24:13;101368.94;;;15.86;67.00
69173;BME280;56280;49.662;8.408;2022-07-06T01:26:38;101360.53;;;15.69;67.80
69173;BME280;56280;49.662;8.408;2022-07-06T01:29:04;101377.06;;;15.75;67.97
69173;BME280;56280;49.662;8.408;2022-07-06T01:31:29;101358.16;;;15.66;67.79
69173;BME280;56280;49.662;8.408;2022-07-06T01:33:56;101369.56;;;15.68;68.14
69173;BME280;56280;49.662;8.408;2022-07-06T01:36:23;101352.84;;;15.55;68.46
69173;BME280;56280;49.662;8.408;2022-07-06T01:38:50;101356.13;;;15.59;68.23
69173;BME280;56280;49.662;8.408;2022-07-06T01:41:16;101374.50;;;15.73;68.35
69173;BME280;56280;49.662;8.408;2022-07-06T01:43:42;101369.13;;;15.63;68.52
69173;BME280;56280;49.662;8.408;2022-07-06T01:46:07;101369.09;;;15.54;68.50
69173;BME280;56280;49.662;8.408;2022-07-06T01:48:33;101376.41;;;15.52;68.65
69173;BME280;56280;49.662;8.408;2022-07-06T01:50:58;101366.22;;;15.45;68.80
69173;BME280;56280;49.662;8.408;2022-07-06T01:53:23;101356.22;;;15.38;69.55
69173;BME280;56280;49.662;8.408;2022-07-06T01:55:49;101355.44;;;15.26;69.93
69173;BME280;56280;49.662;8.408;2022-07-06T01:58:14;101366.56;;;15.31;69.92
69173;BME280;56280;49.662;8.408;2022-07-06T02:00:40;101362.63;;;15.25;69.93
69173;BME280;56280;49.662;8.408;2022-07-06T02:03:05;101352.72;;;15.16;69.53
69173;BME280;56280;49.662;8.408;2022-07-06T02:05:30;101339.31;;;15.16;69.67
69173;BME280;56280;49.662;8.408;2022-07-06T02:07:56;101341.28;;;15.14;69.57
69173;BME280;56280;49.662;8.408;2022-07-06T02:10:21;101353.72;;;15.15;69.41
69173;BME280;56280;49.662;8.408;2022-07-06T02:12:46;101364.94;;;15.09;70.29
69173;BME280;56280;49.662;8.408;2022-07-06T02:15:12;101364.50;;;15.04;70.62
69173;BME280;56280;49.662;8.408;2022-07-06T02:17:37;101354.44;;;14.96;70.78
69173;BME280;56280;49.662;8.408;2022-07-06T02:20:04;101377.75;;;15.05;70.79
69173;BME280;56280;49.662;8.408;2022-07-06T02:22:30;101367.88;;;15.06;70.40
69173;BME280;56280;49.662;8.408;2022-07-06T02:24:55;101356.66;;;14.91;70.52
69173;BME280;56280;49.662;8.408;2022-07-06T02:27:20;101380.56;;;15.04;70.35
69173;BME280;56280;49.662;8.408;2022-07-06T02:29:45;101375.84;;;14.96;70.79
69173;BME280;56280;49.662;8.408;2022-07-06T02:32:11;101382.41;;;14.92;70.78
69173;BME280;56280;49.662;8.408;2022-07-06T02:34:36;101383.56;;;14.89;70.75
69173;BME280;56280;49.662;8.408;2022-07-06T02:37:01;101385.75;;;14.84;71.16
69173;BME280;56280;49.662;8.408;2022-07-06T02:39:27;101391.50;;;14.80;71.51
69173;BME280;56280;49.662;8.408;2022-07-06T02:41:52;101385.41;;;14.77;71.23
69173;BME280;56280;49.662;8.408;2022-07-06T02:44:17;101394.56;;;14.75;70.94
69173;BME280;56280;49.662;8.408;2022-07-06T02:46:43;101381.97;;;14.87;70.65
69173;BME280;56280;49.662;8.408;2022-07-06T02:49:08;101377.72;;;14.84;70.32
69173;BME280;56280;49.662;8.408;2022-07-06T02:51:33;101377.19;;;14.90;70.14
69173;BME280;56280;49.662;8.408;2022-07-06T02:53:58;101361.41;;;14.87;69.43
69173;BME280;56280;49.662;8.408;2022-07-06T02:56:24;101381.56;;;15.12;68.46
69173;BME280;56280;49.662;8.408;2022-07-06T02:58:49;101386.34;;;15.09;68.81
69173;BME280;56280;49.662;8.408;2022-07-06T03:01:14;101388.28;;;15.07;68.93
69173;BME280;56280;49.662;8.408;2022-07-06T03:03:39;101393.38;;;15.10;68.55
69173;BME280;56280;49.662;8.408;2022-07-06T03:06:05;101385.97;;;14.92;68.97
69173;BME280;56280;49.662;8.408;2022-07-06T03:08:30;101378.34;;;14.88;69.04
69173;BME280;56280;49.662;8.408;2022-07-06T03:10:55;101402.59;;;14.96;69.08
69173;BME280;56280;49.662;8.408;2022-07-06T03:13:21;101394.66;;;14.85;69.24
69173;BME280;56280;49.662;8.408;2022-07-06T03:15:46;101413.75;;;14.80;69.45
69173;BME280;56280;49.662;8.408;2022-07-06T03:18:11;101392.09;;;14.83;69.02
69173;BME280;56280;49.662;8.408;2022-07-06T03:20:36;101417.78;;;14.95;68.98
69173;BME280;56280;49.662;8.408;2022-07-06T03:23:02;101418.41;;;14.99;69.07
69173;BME280;56280;49.662;8.408;2022-07-06T03:25:27;101406.63;;;14.90;68.86
69173;BME280;56280;49.662;8.408;2022-07-06T03:27:52;101414.41;;;14.93;70.04
69173;BME280;56280;49.662;8.408;2022-07-06T03:30:18;101419.16;;;14.90;69.35
69173;BME280;56280;49.662;8.408;2022-07-06T03:32:43;101409.50;;;14.77;69.79
69173;BME280;56280;49.662;8.408;2022-07-06T03:35:08;101418.59;;;14.86;69.42
69173;BME280;56280;49.662;8.408;2022-07-06T03:37:34;101418.13;;;14.81;69.54
69173;BME280;56280;49.662;8.408;2022-07-06T03:39:59;101407.16;;;14.84;69.15
69173;BME280;56280;49.662;8.408;2022-07-06T03:42:24;101423.44;;;14.92;70.01
69173;BME280;56280;49.662;8.408;2022-07-06T03:44:49;101410.38;;;14.78;69.55
69173;BME280;56280;49.662;8.408;2022-07-06T03:47:15;101411.34;;;14.77;69.34
69173;BME280;56280;49.662;8.408;2022-07-06T03:49:40;101429.53;;;14.83;69.59
69173;BME280;56280;49.662;8.408;2022-07-06T03:52:05;101413.50;;;14.83;69.38
69173;BME280;56280;49.662;8.408;2022-07-06T03:54:31;101423.88;;;14.98;69.14
69173;BME280;56280;49.662;8.408;2022-07-06T03:56:56;101417.19;;;14.92;69.02
69173;BME280;56280;49.662;8.408;2022-07-06T03:59:21;101414.41;;;14.93;68.63
69173;BME280;56280;49.662;8.408;2022-07-06T04:01:46;101420.13;;;15.10;68.98
69173;BME280;56280;49.662;8.408;2022-07-06T04:04:12;101433.19;;;15.24;68.54
69173;BME280;56280;49.662;8.408;2022-07-06T04:06:37;101431.16;;;15.38;68.17
69173;BME280;56280;49.662;8.408;2022-07-06T04:09:03;101430.78;;;15.42;67.23
69173;BME280;56280;49.662;8.408;2022-07-06T04:11:28;101409.28;;;15.32;66.83
69173;BME280;56280;49.662;8.408;2022-07-06T04:13:54;101427.81;;;15.45;67.68
69173;BME280;56280;49.662;8.408;2022-07-06T04:16:19;101420.25;;;15.50;66.73
69173;BME280;56280;49.662;8.408;2022-07-06T04:18:45;101429.47;;;15.67;66.62
69173;BME280;56280;49.662;8.408;2022-07-06T04:21:10;101443.03;;;15.76;66.03
69173;BME280;56280;49.662;8.408;2022-07-06T04:23:35;101452.41;;;15.81;65.92
69173;BME280;56280;49.662;8.408;2022-07-06T04:26:01;101438.34;;;15.89;65.90
69173;BME280;56280;49.662;8.408;2022-07-06T04:28:27;101450.19;;;15.96;64.97
69173;BME280;56280;49.662;8.408;2022-07-06T04:30:52;101443.41;;;15.92;65.20
69173;BME280;56280;49.662;8.408;2022-07-06T04:33:17;101444.84;;;16.06;64.96
69173;BME280;56280;49.662;8.408;2022-07-06T04:35:43;101452.19;;;16.04;65.14
69173;BME280;56280;49.662;8.408;2022-07-06T04:38:08;101443.75;;;16.09;65.64
69173;BME280;56280;49.662;8.408;2022-07-06T04:40:33;101436.84;;;16.26;64.40
69173;BME280;56280;49.662;8.408;2022-07-06T04:42:59;101448.75;;;16.43;64.20
69173;BME280;56280;49.662;8.408;2022-07-06T04:45:24;101440.44;;;16.55;63.37
69173;BME280;56280;49.662;8.408;2022-07-06T04:47:50;101441.28;;;16.75;62.76
69173;BME280;56280;49.662;8.408;2022-07-06T04:50:15;101457.94;;;16.79;62.12
69173;BME280;56280;49.662;8.408;2022-07-06T04:52:41;101461.75;;;16.76;62.55
69173;BME280;56280;49.662;8.408;2022-07-06T04:55:06;101457.91;;;16.50;62.91
69173;BME280;56280;49.662;8.408;2022-07-06T04:57:33;101455.06;;;16.32;63.39
69173;BME280;56280;49.662;8.408;2022-07-06T04:59:59;101443.22;;;16.25;63.90
69173;BME280;56280;49.662;8.408;2022-07-06T05:02:24;101465.41;;;16.56;63.23
69173;BME280;56280;49.662;8.408;2022-07-06T05:04:50;101451.41;;;16.33;62.21
69173;BME280;56280;49.662;8.408;2022-07-06T05:07:15;101471.19;;;16.51;63.02
69173;BME280;56280;49.662;8.408;2022-07-06T05:09:40;101465.69;;;16.72;62.06
69173;BME280;56280;49.662;8.408;2022-07-06T05:12:06;101477.59;;;16.70;62.00
69173;BME280;56280;49.662;8.408;2022-07-06T05:14:32;101486.47;;;16.70;62.01
69173;BME280;56280;49.662;8.408;2022-07-06T05:16:58;101474.03;;;16.79;61.35
69173;BME280;56280;49.662;8.408;2022-07-06T05:19:23;101466.75;;;16.91;61.04
69173;BME280;56280;49.662;8.408;2022-07-06T05:21:48;101455.00;;;16.92;60.04
69173;BME280;56280;49.662;8.408;2022-07-06T05:24:14;101474.66;;;17.02;61.30
69173;BME280;56280;49.662;8.408;2022-07-06T05:26:41;101480.72;;;17.04;60.80
69173;BME280;56280;49.662;8.408;2022-07-06T05:29:06;101484.66;;;17.20;60.57
69173;BME280;56280;49.662;8.408;2022-07-06T05:31:31;101482.38;;;17.35;59.16
69173;BME280;56280;49.662;8.408;2022-07-06T05:33:56;101455.41;;;17.17;59.49
69173;BME280;56280;49.662;8.408;2022-07-06T05:36:22;101468.13;;;17.24;58.95
69173;BME280;56280;49.662;8.408;2022-07-06T05:38:47;101492.13;;;17.06;59.61
69173;BME280;56280;49.662;8.408;2022-07-06T05:41:12;101495.41;;;17.10;59.65
69173;BME280;56280;49.662;8.408;2022-07-06T05:43:38;101481.41;;;17.06;59.26
69173;BME280;56280;49.662;8.408;2022-07-06T05:46:03;101482.94;;;17.28;59.37
69173;BME280;56280;49.662;8.408;2022-07-06T05:48:29;101506.38;;;17.46;58.50
69173;BME280;56280;49.662;8.408;2022-07-06T05:51:13;101497.81;;;17.23;59.28
69173;BME280;56280;49.662;8.408;2022-07-06T05:53:38;101486.47;;;17.29;59.62
69173;BME280;56280;49.662;8.408;2022-07-06T05:56:04;101470.22;;;17.21;59.66
69173;BME280;56280;49.662;8.408;2022-07-06T05:58:29;101496.63;;;17.45;59.00
69173;BME280;56280;49.662;8.408;2022-07-06T06:00:54;101499.66;;;17.79;59.58
69173;BME280;56280;49.662;8.408;2022-07-06T06:03:20;101498.28;;;17.56;59.50
69173;BME280;56280;49.662;8.408;2022-07-06T06:05:45;101494.16;;;17.71;57.84
69173;BME280;56280;49.662;8.408;2022-07-06T06:08:10;101498.75;;;17.89;57.81
69173;BME280;56280;49.662;8.408;2022-07-06T06:10:36;101482.78;;;17.97;57.13
69173;BME280;56280;49.662;8.408;2022-07-06T06:13:01;101490.56;;;17.80;58.04
69173;BME280;56280;49.662;8.408;2022-07-06T06:15:26;101492.72;;;17.77;57.84
69173;BME280;56280;49.662;8.408;2022-07-06T06:17:52;101480.97;;;17.78;57.44
69173;BME280;56280;49.662;8.408;2022-07-06T06:20:17;101482.69;;;17.69;57.66
69173;BME280;56280;49.662;8.408;2022-07-06T06:22:53;101499.78;;;17.88;57.20
69173;BME280;56280;49.662;8.408;2022-07-06T06:25:27;101495.03;;;17.62;58.38
69173;BME280;56280;49.662;8.408;2022-07-06T06:27:53;101501.38;;;17.61;58.23
69173;BME280;56280;49.662;8.408;2022-07-06T06:30:18;101507.59;;;17.71;57.26
69173;BME280;56280;49.662;8.408;2022-07-06T06:32:43;101513.81;;;17.72;56.83
69173;BME280;56280;49.662;8.408;2022-07-06T06:35:09;101504.53;;;17.46;58.10
69173;BME280;56280;49.662;8.408;2022-07-06T06:37:34;101511.59;;;17.57;58.65
69173;BME280;56280;49.662;8.408;2022-07-06T06:40:00;101508.50;;;17.52;57.65
69173;BME280;56280;49.662;8.408;2022-07-06T06:42:25;101510.16;;;17.63;57.89
69173;BME280;56280;49.662;8.408;2022-07-06T06:44:51;101506.19;;;17.67;59.00
69173;BME280;56280;49.662;8.408;2022-07-06T06:47:16;101521.16;;;17.79;57.95
69173;BME280;56280;49.662;8.408;2022-07-06T06:49:41;101508.53;;;17.80;58.17
69173;BME280;56280;49.662;8.408;2022-07-06T06:52:06;101522.72;;;18.19;55.60
69173;BME280;56280;49.662;8.408;2022-07-06T06:54:31;101514.84;;;18.08;55.20
69173;BME280;56280;49.662;8.408;2022-07-06T06:56:57;101494.81;;;18.20;55.31
69173;BME280;56280;49.662;8.408;2022-07-06T06:59:22;101509.00;;;18.86;52.55
69173;BME280;56280;49.662;8.408;2022-07-06T07:01:47;101507.69;;;19.08;52.52
69173;BME280;56280;49.662;8.408;2022-07-06T07:04:13;101500.44;;;19.09;52.21
69173;BME280;56280;49.662;8.408;2022-07-06T07:06:39;101491.31;;;19.02;52.35
69173;BME280;56280;49.662;8.408;2022-07-06T07:09:04;101519.72;;;19.22;50.92
69173;BME280;56280;49.662;8.408;2022-07-06T07:11:30;101519.81;;;19.57;50.32
69173;BME280;56280;49.662;8.408;2022-07-06T07:13:56;101521.34;;;19.59;50.31
69173;BME280;56280;49.662;8.408;2022-07-06T07:16:21;101509.06;;;19.57;50.61
69173;BME280;56280;49.662;8.408;2022-07-06T07:18:46;101515.28;;;19.13;49.95
69173;BME280;56280;49.662;8.408;2022-07-06T07:21:11;101526.09;;;18.67;51.00
69173;BME280;56280;49.662;8.408;2022-07-06T07:23:37;101531.50;;;18.39;52.53
69173;BME280;56280;49.662;8.408;2022-07-06T07:26:02;101525.56;;;18.64;52.86
69173;BME280;56280;49.662;8.408;2022-07-06T07:28:27;101527.19;;;18.74;52.06
69173;BME280;56280;49.662;8.408;2022-07-06T07:30:53;101528.38;;;19.08;51.48
69173;BME280;56280;49.662;8.408;2022-07-06T07:33:18;101533.91;;;18.88;50.46
69173;BME280;56280;49.662;8.408;2022-07-06T07:35:43;101528.56;;;18.61;50.83
69173;BME280;56280;49.662;8.408;2022-07-06T07:38:09;101508.84;;;18.42;51.48
69173;BME280;56280;49.662;8.408;2022-07-06T07:40:34;101522.66;;;18.29;51.24
69173;BME280;56280;49.662;8.408;2022-07-06T07:43:00;101518.06;;;18.39;50.78
69173;BME280;56280;49.662;8.408;2022-07-06T07:45:26;101517.13;;;18.76;52.79
69173;BME280;56280;49.662;8.408;2022-07-06T07:47:51;101529.44;;;19.15;49.70
69173;BME280;56280;49.662;8.408;2022-07-06T07:50:16;101528.53;;;18.88;49.01
69173;BME280;56280;49.662;8.408;2022-07-06T07:52:43;101532.00;;;18.99;49.61
69173;BME280;56280;49.662;8.408;2022-07-06T07:55:09;101530.94;;;18.64;49.68
69173;BME280;56280;49.662;8.408;2022-07-06T07:57:34;101531.41;;;18.77;49.60
69173;BME280;56280;49.662;8.408;2022-07-06T08:00:00;101536.41;;;18.72;49.12
69173;BME280;56280;49.662;8.408;2022-07-06T08:02:25;101528.63;;;18.69;50.19
69173;BME280;56280;49.662;8.408;2022-07-06T08:04:50;101517.13;;;18.94;49.42
69173;BME280;56280;49.662;8.408;2022-07-06T08:07:16;101503.38;;;18.98;48.65
69173;BME280;56280;49.662;8.408;2022-07-06T08:09:41;101509.69;;;19.06;47.64
69173;BME280;56280;49.662;8.408;2022-07-06T08:12:06;101507.69;;;19.08;48.31
69173;BME280;56280;49.662;8.408;2022-07-06T08:14:32;101519.66;;;19.32;47.72
69173;BME280;56280;49.662;8.408;2022-07-06T08:16:57;101520.44;;;19.50;49.31
69173;BME280;56280;49.662;8.408;2022-07-06T08:19:23;101515.34;;;19.92;46.81
69173;BME280;56280;49.662;8.408;2022-07-06T08:21:48;101520.19;;;19.62;45.81
69173;BME280;56280;49.662;8.408;2022-07-06T08:24:13;101508.22;;;19.56;45.26
69173;BME280;56280;49.662;8.408;2022-07-06T08:26:38;101506.66;;;19.54;45.72
69173;BME280;56280;49.662;8.408;2022-07-06T08:29:04;101525.63;;;19.44;46.18
69173;BME280;56280;49.662;8.408;2022-07-06T08:31:30;101517.91;;;19.23;46.37
69173;BME280;56280;49.662;8.408;2022-07-06T08:33:56;101520.59;;;18.87;48.98
69173;BME280;56280;49.662;8.408;2022-07-06T08:36:22;101501.84;;;18.95;47.16
69173;BME280;56280;49.662;8.408;2022-07-06T08:38:48;101526.81;;;18.69;47.92
69173;BME280;56280;49.662;8.408;2022-07-06T08:41:17;101539.47;;;19.05;48.62
69173;BME280;56280;49.662;8.408;2022-07-06T08:43:43;101529.94;;;18.47;49.35
69173;BME280;56280;49.662;8.408;2022-07-06T08:46:08;101521.28;;;18.71;48.17
69173;BME280;56280;49.662;8.408;2022-07-06T08:48:36;101530.22;;;19.07;47.21
69173;BME280;56280;49.662;8.408;2022-07-06T08:51:03;101542.88;;;19.33;47.92
69173;BME280;56280;49.662;8.408;2022-07-06T08:53:29;101487.91;;;19.44;48.97
69173;BME280;56280;49.662;8.408;2022-07-06T08:55:54;101518.78;;;20.53;46.48
69173;BME280;56280;49.662;8.408;2022-07-06T08:58:20;101524.28;;;20.86;44.42
69173;BME280;56280;49.662;8.408;2022-07-06T09:00:48;101537.78;;;20.35;44.16
69173;BME280;56280;49.662;8.408;2022-07-06T09:03:14;101515.72;;;19.71;45.59
69173;BME280;56280;49.662;8.408;2022-07-06T09:05:40;101527.94;;;19.83;45.65
69173;BME280;56280;49.662;8.408;2022-07-06T09:08:06;101519.16;;;19.81;46.41
69173;BME280;56280;49.662;8.408;2022-07-06T09:10:32;101530.06;;;20.06;46.30
69173;BME280;56280;49.662;8.408;2022-07-06T09:13:05;101508.72;;;20.20;45.43
69173;BME280;56280;49.662;8.408;2022-07-06T09:15:32;101527.22;;;20.50;45.79
69173;BME280;56280;49.662;8.408;2022-07-06T09:17:58;101518.19;;;20.25;45.54
69173;BME280;56280;49.662;8.408;2022-07-06T09:20:23;101533.00;;;19.60;45.83
69173;BME280;56280;49.662;8.408;2022-07-06T09:22:48;101511.63;;;19.66;45.76
69173;BME280;56280;49.662;8.408;2022-07-06T09:25:15;101518.16;;;20.16;44.95
69173;BME280;56280;49.662;8.408;2022-07-06T09:27:45;101527.06;;;20.51;44.64
69173;BME280;56280;49.662;8.408;2022-07-06T09:30:13;101514.13;;;20.80;44.20
69173;BME280;56280;49.662;8.408;2022-07-06T09:32:44;101504.19;;;21.05;45.10
69173;BME280;56280;49.662;8.408;2022-07-06T09:38:08;101522.59;;;20.93;43.56
69173;BME280;56280;49.662;8.408;2022-07-06T09:40:36;101527.31;;;20.83;44.31
69173;BME280;56280;49.662;8.408;2022-07-06T09:43:19;101516.84;;;20.88;44.86
69173;BME280;56280;49.662;8.408;2022-07-06T09:45:46;101520.06;;;21.16;41.17
69173;BME280;56280;49.662;8.408;2022-07-06T09:48:18;101489.31;;;20.68;42.63
69173;BME280;56280;49.662;8.408;2022-07-06T09:50:48;101501.28;;;21.47;46.13
69173;BME280;56280;49.662;8.408;2022-07-06T09:53:14;101504.31;;;22.25;41.73
69173;BME280;56280;49.662;8.408;2022-07-06T09:55:50;101507.53;;;22.83;40.73
69173;BME280;56280;49.662;8.408;2022-07-06T09:58:17;101518.25;;;23.00;39.00
69173;BME280;56280;49.662;8.408;2022-07-06T10:00:44;101510.72;;;23.48;38.55
69173;BME280;56280;49.662;8.408;2022-07-06T10:03:10;101506.91;;;23.72;35.84
69173;BME280;56280;49.662;8.408;2022-07-06T10:05:41;101511.28;;;23.58;37.61
69173;BME280;56280;49.662;8.408;2022-07-06T10:08:08;101514.94;;;22.35;37.86
69173;BME280;56280;49.662;8.408;2022-07-06T10:10:35;101522.28;;;22.10;39.29
69173;BME280;56280;49.662;8.408;2022-07-06T10:13:01;101525.56;;;21.89;39.92
69173;BME280;56280;49.662;8.408;2022-07-06T10:15:29;101528.28;;;22.36;37.36
69173;BME280;56280;49.662;8.408;2022-07-06T10:17:58;101516.16;;;22.16;37.31
69173;BME280;56280;49.662;8.408;2022-07-06T10:20:25;101523.63;;;21.58;36.79
69173;BME280;56280;49.662;8.408;2022-07-06T10:22:52;101514.31;;;21.36;37.05
69173;BME280;56280;49.662;8.408;2022-07-06T10:25:19;101484.34;;;21.87;37.48
69173;BME280;56280;49.662;8.408;2022-07-06T10:27:47;101496.59;;;21.41;35.63
69173;BME280;56280;49.662;8.408;2022-07-06T10:30:14;101515.09;;;21.85;37.53
69173;BME280;56280;49.662;8.408;2022-07-06T10:32:41;101514.69;;;22.05;37.46
69173;BME280;56280;49.662;8.408;2022-07-06T10:35:07;101502.63;;;21.68;35.70
69173;BME280;56280;49.662;8.408;2022-07-06T10:37:33;101495.56;;;21.67;37.18
69173;BME280;56280;49.662;8.408;2022-07-06T10:39:59;101485.78;;;21.49;36.90
69173;BME280;56280;49.662;8.408;2022-07-06T10:42:48;101502.00;;;21.58;37.23
69173;BME280;56280;49.662;8.408;2022-07-06T10:50:38;101488.88;;;22.34;36.26
69173;BME280;56280;49.662;8.408;2022-07-06T10:53:10;101503.41;;;22.64;33.76
69173;BME280;56280;49.662;8.408;2022-07-06T10:55:37;101495.22;;;22.49;35.39
69173;BME280;56280;49.662;8.408;2022-07-06T10:58:04;101494.59;;;22.39;37.53
69173;BME280;56280;49.662;8.408;2022-07-06T11:00:56;101497.72;;;22.59;36.21
69173;BME280;56280;49.662;8.408;2022-07-06T11:06:31;101508.34;;;22.61;36.11
69173;BME280;56280;49.662;8.408;2022-07-06T11:09:04;101491.28;;;22.83;36.93
69173;BME280;56280;49.662;8.408;2022-07-06T11:14:17;101509.59;;;22.10;34.55
69173;BME280;56280;49.662;8.408;2022-07-06T11:19:18;101491.19;;;21.58;36.56
69173;BME280;56280;49.662;8.408;2022-07-06T11:21:52;101505.38;;;21.43;36.44
69173;BME280;56280;49.662;8.408;2022-07-06T11:24:19;101506.38;;;21.34;36.67
69173;BME280;56280;49.662;8.408;2022-07-06T11:26:50;101487.28;;;21.36;38.61
69173;BME280;56280;49.662;8.408;2022-07-06T11:29:17;101500.66;;;21.29;37.03
69173;BME280;56280;49.662;8.408;2022-07-06T11:31:46;101491.00;;;21.35;39.26
69173;BME280;56280;49.662;8.408;2022-07-06T11:34:17;101482.03;;;21.67;37.79
69173;BME280;56280;49.662;8.408;2022-07-06T11:36:42;101483.56;;;22.09;37.60
69173;BME280;56280;49.662;8.408;2022-07-06T11:39:08;101485.34;;;22.33;35.81
69173;BME280;56280;49.662;8.408;2022-07-06T11:41:34;101492.75;;;22.39;37.00
69173;BME280;56280;49.662;8.408;2022-07-06T11:44:00;101480.28;;;22.53;37.52
69173;BME280;56280;49.662;8.408;2022-07-06T11:46:28;101488.59;;;22.52;36.06
69173;BME280;56280;49.662;8.408;2022-07-06T11:48:55;101467.94;;;22.19;35.91
69173;BME280;56280;49.662;8.408;2022-07-06T11:51:23;101488.19;;;21.92;35.67
69173;BME280;56280;49.662;8.408;2022-07-06T11:53:52;101479.47;;;21.74;37.44
69173;BME280;56280;49.662;8.408;2022-07-06T11:56:18;101495.56;;;22.07;37.39
69173;BME280;56280;49.662;8.408;2022-07-06T11:58:51;101477.06;;;22.27;36.27
69173;BME280;56280;49.662;8.408;2022-07-06T12:01:17;101452.28;;;22.07;37.41
69173;BME280;56280;49.662;8.408;2022-07-06T12:03:43;101477.53;;;22.38;37.07
69173;BME280;56280;49.662;8.408;2022-07-06T12:06:20;101468.88;;;22.43;35.73
69173;BME280;56280;49.662;8.408;2022-07-06T12:11:26;101479.94;;;21.85;36.61
69173;BME280;56280;49.662;8.408;2022-07-06T12:13:53;101473.25;;;21.57;35.65
69173;BME280;56280;49.662;8.408;2022-07-06T12:16:20;101476.97;;;21.64;35.70
69173;BME280;56280;49.662;8.408;2022-07-06T12:18:47;101459.84;;;21.72;36.46
69173;BME280;56280;49.662;8.408;2022-07-06T12:21:15;101471.66;;;21.87;37.12
69173;BME280;56280;49.662;8.408;2022-07-06T12:23:54;101468.59;;;22.21;38.37
69173;BME280;56280;49.662;8.408;2022-07-06T12:26:23;101456.28;;;22.19;34.79
69173;BME280;56280;49.662;8.408;2022-07-06T12:29:05;101454.19;;;21.34;35.31
69173;BME280;56280;49.662;8.408;2022-07-06T12:31:37;101451.16;;;21.20;34.31
69173;BME280;56280;49.662;8.408;2022-07-06T12:34:03;101459.09;;;21.22;38.64
69173;BME280;56280;49.662;8.408;2022-07-06T12:36:29;101461.94;;;21.53;37.18
69173;BME280;56280;49.662;8.408;2022-07-06T12:38:55;101453.97;;;21.68;37.54
69173;BME280;56280;49.662;8.408;2022-07-06T12:41:47;101460.09;;;22.01;37.04
69173;BME280;56280;49.662;8.408;2022-07-06T12:44:14;101442.44;;;22.14;36.88
69173;BME280;56280;49.662;8.408;2022-07-06T12:46:41;101452.00;;;22.25;36.60
69173;BME280;56280;49.662;8.408;2022-07-06T12:51:59;101456.72;;;22.62;36.48
69173;BME280;56280;49.662;8.408;2022-07-06T12:54:36;101436.31;;;22.51;36.49
69173;BME280;56280;49.662;8.408;2022-07-06T12:57:10;101454.59;;;22.18;35.26
69173;BME280;56280;49.662;8.408;2022-07-06T12:59:54;101433.47;;;21.82;34.58
69173;BME280;56280;49.662;8.408;2022-07-06T13:02:29;101444.78;;;22.17;36.17
69173;BME280;56280;49.662;8.408;2022-07-06T13:04:56;101440.31;;;22.32;35.86
69173;BME280;56280;49.662;8.408;2022-07-06T13:07:23;101453.66;;;22.02;35.64
69173;BME280;56280;49.662;8.408;2022-07-06T13:09:48;101440.78;;;21.65;36.38